Time;durP1;ratioP1;P1;durP2;ratioP2;P2;SDS_P1;SDS_P2;PMS_P1;PMS_P2;Temp;Humidity;BMP_temperature;BMP_pressure;BME280_temperature;BME280_humidity;BME280_pressure;Samples;Min_cycle;Max_cycle;Signal;HPM_P1;HPM_P2
2023/06/19 00:01:54;;;;;;;4.63;3.25;;;17.10;99.90;;;;;;4996903;28;20033;-87
2023/06/19 00:04:20;;;;;;;3.78;3.00;;;17.20;99.90;;;;;;5014534;28;20101;-87
2023/06/19 00:06:46;;;;;;;6.05;3.10;;;17.20;99.90;;;;;;5014739;28;20114;-86
2023/06/19 00:09:11;;;;;;;5.85;2.83;;;17.20;99.90;;;;;;4997392;28;20025;-88
2023/06/19 00:11:37;;;;;;;3.70;2.35;;;17.20;99.90;;;;;;5014381;28;20042;-87
2023/06/19 00:14:03;;;;;;;4.82;2.97;;;17.10;99.90;;;;;;4993649;28;20579;-88
2023/06/19 00:16:28;;;;;;;5.32;2.58;;;17.10;99.90;;;;;;4997568;28;20030;-86
2023/06/19 00:18:57;;;;;;;4.45;3.30;;;17.00;99.90;;;;;;4993939;28;20492;-87
2023/06/19 00:21:26;;;;;;;4.25;3.20;;;16.90;99.90;;;;;;4994869;28;20030;-87
2023/06/19 00:23:52;;;;;;;5.25;3.88;;;16.80;99.90;;;;;;4993382;28;20026;-87
2023/06/19 00:26:22;;;;;;;5.28;3.40;;;16.70;99.90;;;;;;4994651;28;20034;-87
2023/06/19 00:28:51;;;;;;;5.68;3.75;;;16.60;99.90;;;;;;4994576;28;20502;-87
2023/06/19 00:31:16;;;;;;;3.92;3.15;;;16.60;99.90;;;;;;4994344;28;20034;-86
2023/06/19 00:33:43;;;;;;;6.93;3.47;;;16.50;99.90;;;;;;4994232;28;20498;-86
2023/06/19 00:36:15;;;;;;;6.15;3.22;;;16.40;99.90;;;;;;4993288;28;20030;-87
2023/06/19 00:38:41;;;;;;;8.10;3.00;;;16.40;99.90;;;;;;4993300;28;20073;-87
2023/06/19 00:41:08;;;;;;;4.32;3.03;;;16.40;99.90;;;;;;4993436;28;20026;-87
2023/06/19 00:43:34;;;;;;;7.13;3.00;;;16.40;99.90;;;;;;4993194;28;20045;-86
2023/06/19 00:46:01;;;;;;;4.18;3.13;;;16.40;99.90;;;;;;4994356;28;20436;-87
2023/06/19 00:48:28;;;;;;;4.70;3.28;;;16.40;99.90;;;;;;4993329;28;20026;-87
2023/06/19 00:50:55;;;;;;;6.18;3.53;;;16.30;99.90;;;;;;4994282;28;20080;-86
2023/06/19 00:53:22;;;;;;;4.70;3.30;;;16.30;99.90;;;;;;4993045;28;20072;-87
2023/06/19 00:55:48;;;;;;;6.78;3.63;;;16.30;99.90;;;;;;4993083;28;20587;-85
2023/06/19 00:58:15;;;;;;;7.60;3.70;;;16.20;99.90;;;;;;4994486;28;20034;-87
2023/06/19 01:00:41;;;;;;;5.43;3.35;;;16.20;99.90;;;;;;4994415;28;20022;-86
2023/06/19 01:03:06;;;;;;;9.43;3.92;;;16.20;99.90;;;;;;4994571;28;20566;-85
2023/06/19 01:05:33;;;;;;;5.60;3.13;;;16.20;99.90;;;;;;4990812;28;20497;-86
2023/06/19 01:08:09;;;;;;;8.32;3.78;;;16.20;99.90;;;;;;4991514;28;20490;-86
2023/06/19 01:10:37;;;;;;;;;;;16.20;99.90;;;;;;4994287;28;20434;-87
2023/06/19 01:13:10;;;;;;;9.70;3.65;;;16.20;99.90;;;;;;4992655;28;19925;-87
2023/06/19 01:15:36;;;;;;;5.10;3.22;;;16.20;99.90;;;;;;5013210;28;20175;-87
2023/06/19 01:18:03;;;;;;;4.15;3.53;;;16.20;99.90;;;;;;4995818;28;20030;-87
2023/06/19 01:20:30;;;;;;;4.28;3.40;;;16.10;99.90;;;;;;4999417;28;20124;-87
2023/06/19 01:22:56;;;;;;;5.28;3.33;;;16.10;99.90;;;;;;4998236;28;20033;-86
2023/06/19 01:25:23;;;;;;;7.47;3.33;;;16.10;99.90;;;;;;5013013;28;20018;-88
2023/06/19 01:27:50;;;;;;;6.18;3.10;;;16.10;99.90;;;;;;4994908;28;20037;-87
2023/06/19 01:30:16;;;;;;;6.97;3.47;;;16.20;99.90;;;;;;5013009;28;20022;-87
2023/06/19 01:33:27;;;;;;;5.22;2.90;;;16.20;99.90;;;;;;5013131;28;20044;-87
2023/06/19 01:35:55;;;;;;;7.75;3.70;;;16.20;99.90;;;;;;4995879;28;20053;-87
2023/06/19 01:38:25;;;;;;;4.75;3.10;;;16.30;99.90;;;;;;4995635;28;20022;-85
2023/06/19 01:40:53;;;;;;;4.85;3.20;;;16.30;99.90;;;;;;4995684;28;20513;-87
2023/06/19 01:43:19;;;;;;;3.92;2.80;;;16.30;99.90;;;;;;5012979;28;20050;-87
2023/06/19 01:45:45;;;;;;;4.50;2.83;;;16.30;99.90;;;;;;4995476;28;20083;-87
2023/06/19 01:48:10;;;;;;;3.88;2.53;;;16.30;99.90;;;;;;5012991;28;20034;-86
2023/06/19 01:50:36;;;;;;;6.28;3.10;;;16.20;99.90;;;;;;4995384;28;20038;-87
2023/06/19 01:53:02;;;;;;;4.38;3.40;;;16.20;99.90;;;;;;5013132;28;20022;-86
2023/06/19 01:55:27;;;;;;;4.60;3.40;;;16.10;99.90;;;;;;5012976;28;20375;-86
2023/06/19 01:57:53;;;;;;;5.53;3.80;;;16.00;99.90;;;;;;4995480;28;20152;-87
2023/06/19 02:00:19;;;;;;;2.97;2.53;;;15.90;99.90;;;;;;4995781;28;20613;-87
2023/06/19 02:02:44;;;;;;;5.00;3.28;;;15.80;99.90;;;;;;4995259;28;20022;-87
2023/06/19 02:05:11;;;;;;;4.97;3.28;;;15.80;99.90;;;;;;5013028;28;20026;-87
2023/06/19 02:07:37;;;;;;;9.82;3.42;;;15.80;99.90;;;;;;4995590;28;20022;-85
2023/06/19 02:10:04;;;;;;;3.83;2.85;;;15.80;99.90;;;;;;5013930;28;20036;-88
2023/06/19 02:12:30;;;;;;;4.72;3.00;;;15.80;99.90;;;;;;5012732;28;20125;-87
2023/06/19 02:14:56;;;;;;;4.32;3.22;;;15.80;99.90;;;;;;4995269;28;20073;-87
2023/06/19 02:17:21;;;;;;;3.88;3.08;;;15.80;99.90;;;;;;4995324;28;20043;-87
2023/06/19 02:19:47;;;;;;;5.10;3.50;;;15.80;99.90;;;;;;4995273;28;20112;-86
2023/06/19 02:22:13;;;;;;;6.22;3.47;;;15.80;99.90;;;;;;4995429;28;20069;-87
2023/06/19 02:24:39;;;;;;;5.30;3.30;;;15.80;99.90;;;;;;4996993;28;20128;-86
2023/06/19 02:27:05;;;;;;;6.97;3.33;;;15.80;99.90;;;;;;5016520;28;20105;-87
2023/06/19 02:29:33;;;;;;;5.55;3.50;;;15.70;99.90;;;;;;4997707;28;20486;-86
2023/06/19 02:31:59;;;;;;;6.00;3.35;;;15.60;99.90;;;;;;4997411;28;20553;-87
2023/06/19 02:34:25;;;;;;;4.85;3.33;;;15.60;99.90;;;;;;4998976;28;20018;-87
2023/06/19 02:36:50;;;;;;;5.45;3.00;;;15.60;99.90;;;;;;4999113;28;20034;-87
2023/06/19 02:39:16;;;;;;;4.18;3.47;;;15.60;99.90;;;;;;5016516;28;20391;-87
2023/06/19 02:41:45;;;;;;;3.83;2.83;;;15.60;99.90;;;;;;5016065;28;20022;-87
2023/06/19 02:44:11;;;;;;;4.05;2.88;;;15.60;99.90;;;;;;4998898;28;20035;-87
2023/06/19 02:46:37;;;;;;;4.78;3.03;;;15.60;99.90;;;;;;4998736;28;20447;-87
2023/06/19 02:49:03;;;;;;;3.75;2.40;;;15.70;99.90;;;;;;4998427;28;20482;-86
2023/06/19 02:51:29;;;;;;;5.55;3.13;;;15.70;99.90;;;;;;5015279;28;20045;-86
2023/06/19 02:53:54;;;;;;;5.10;3.15;;;15.70;99.90;;;;;;5016416;28;20028;-87
2023/06/19 02:56:20;;;;;;;7.40;3.40;;;15.60;99.90;;;;;;5014482;28;20065;-87
2023/06/19 02:58:45;;;;;;;;;;;15.60;99.90;;;;;;5015844;28;20022;-87
2023/06/19 03:01:11;;;;;;;4.82;3.10;;;15.50;99.90;;;;;;4998506;28;19967;-86
2023/06/19 03:03:37;;;;;;;7.35;3.30;;;15.50;99.90;;;;;;5015403;28;20026;-86
2023/06/19 03:06:05;;;;;;;5.70;3.25;;;15.60;99.90;;;;;;5015686;28;20021;-87
2023/06/19 03:08:32;;;;;;;4.97;3.35;;;15.60;99.90;;;;;;4998583;28;20057;-87
2023/06/19 03:10:58;;;;;;;6.65;3.22;;;15.60;99.90;;;;;;4998058;28;20104;-87
2023/06/19 03:13:23;;;;;;;5.95;3.25;;;15.70;99.90;;;;;;4998000;28;20492;-87
2023/06/19 03:15:49;;;;;;;;;;;15.70;99.90;;;;;;5015844;28;20092;-87
2023/06/19 03:18:15;;;;;;;10.10;3.60;;;15.80;99.90;;;;;;5015442;28;20004;-86
2023/06/19 03:20:40;;;;;;;8.38;3.33;;;15.80;99.90;;;;;;5015563;28;20064;-87
2023/06/19 03:23:06;;;;;;;3.72;2.65;;;15.90;99.90;;;;;;4998078;28;20380;-86
2023/06/19 03:25:34;;;;;;;5.40;3.00;;;16.00;99.90;;;;;;4998222;28;20029;-87
2023/06/19 03:28:02;;;;;;;4.43;3.20;;;16.00;99.90;;;;;;4998142;28;20080;-87
2023/06/19 03:30:28;;;;;;;9.25;3.45;;;16.10;99.90;;;;;;4997689;28;20026;-87
2023/06/19 03:32:53;;;;;;;4.22;3.00;;;16.10;99.90;;;;;;4997761;28;20030;-87
2023/06/19 03:35:19;;;;;;;5.10;2.70;;;16.20;99.90;;;;;;4997273;28;20072;-87
2023/06/19 03:37:44;;;;;;;7.40;3.05;;;16.20;99.90;;;;;;5012785;28;20030;-87
2023/06/19 03:40:13;;;;;;;5.28;3.33;;;16.30;99.90;;;;;;5013974;28;20453;-87
2023/06/19 03:42:39;;;;;;;4.90;2.80;;;16.30;99.90;;;;;;4997571;28;20403;-85
2023/06/19 03:45:06;;;;;;;4.43;2.92;;;16.40;99.90;;;;;;4997818;28;20022;-87
2023/06/19 03:47:31;;;;;;;5.18;3.25;;;16.50;99.90;;;;;;5014816;28;20069;-86
2023/06/19 03:49:57;;;;;;;5.25;3.83;;;16.50;99.90;;;;;;5014772;28;20025;-87
2023/06/19 03:52:23;;;;;;;4.68;2.90;;;16.60;99.90;;;;;;4997158;28;20034;-87
2023/06/19 03:54:49;;;;;;;5.20;3.03;;;16.70;99.90;;;;;;4999535;28;20105;-87
2023/06/19 03:57:15;;;;;;;5.22;3.08;;;16.70;99.90;;;;;;4997254;28;20053;-86
2023/06/19 03:59:40;;;;;;;7.10;3.00;;;16.80;99.90;;;;;;4997022;28;20053;-87
2023/06/19 04:02:06;;;;;;;4.68;3.10;;;16.90;99.90;;;;;;5015995;28;20026;-87
2023/06/19 04:04:32;;;;;;;3.92;2.58;;;17.00;99.90;;;;;;4997109;28;20037;-86
2023/06/19 04:06:59;;;;;;;5.82;3.03;;;17.20;99.90;;;;;;4997077;28;20030;-87
2023/06/19 04:09:25;;;;;;;4.22;2.53;;;17.40;99.90;;;;;;4997007;28;20030;-87
2023/06/19 04:11:50;;;;;;;4.50;2.95;;;17.90;99.90;;;;;;5014246;28;20398;-87
2023/06/19 04:14:16;;;;;;;6.80;3.03;;;18.20;99.90;;;;;;4996606;28;20056;-87
2023/06/19 04:16:42;;;;;;;4.03;2.88;;;18.40;99.90;;;;;;5014736;28;20549;-87
2023/06/19 04:19:07;;;;;;;5.22;3.08;;;18.40;99.90;;;;;;5014525;28;20105;-88
2023/06/19 04:21:33;;;;;;;3.65;2.60;;;18.50;99.90;;;;;;4995675;28;20064;-86
2023/06/19 04:23:59;;;;;;;3.88;2.70;;;18.50;99.90;;;;;;4996671;28;20026;-86
2023/06/19 04:26:25;;;;;;;6.60;3.22;;;18.60;99.90;;;;;;4996454;28;20022;-87
2023/06/19 04:28:50;;;;;;;7.55;2.90;;;18.70;99.90;;;;;;5012781;28;20492;-84
2023/06/19 04:31:18;;;;;;;3.88;2.80;;;18.80;99.90;;;;;;5011707;28;20450;-82
2023/06/19 04:33:45;;;;;;;4.20;2.30;;;19.00;99.90;;;;;;5014507;28;20014;-84
2023/06/19 04:36:11;;;;;;;4.80;2.72;;;19.10;99.90;;;;;;4996792;28;20108;-84
2023/06/19 04:38:36;;;;;;;9.45;2.50;;;19.20;99.90;;;;;;4995352;28;20482;-85
2023/06/19 04:41:02;;;;;;;6.93;2.60;;;19.30;99.90;;;;;;5012947;28;20371;-83
2023/06/19 04:43:28;;;;;;;3.25;2.22;;;19.40;99.90;;;;;;4995245;28;20025;-82
2023/06/19 04:45:53;;;;;;;6.57;2.30;;;19.50;99.90;;;;;;4993970;28;20402;-84
2023/06/19 04:48:19;;;;;;;3.80;2.40;;;19.60;99.90;;;;;;4993025;28;20410;-83
2023/06/19 04:50:45;;;;;;;4.47;2.72;;;19.80;99.90;;;;;;4993211;28;20029;-83
2023/06/19 04:53:11;;;;;;;5.75;2.92;;;19.90;99.90;;;;;;4993294;28;20557;-84
2023/06/19 04:55:37;;;;;;;4.95;3.08;;;20.00;99.90;;;;;;4993445;28;20029;-84
2023/06/19 04:58:03;;;;;;;6.25;2.78;;;20.10;99.90;;;;;;4994477;28;20088;-85
2023/06/19 05:00:28;;;;;;;4.38;2.72;;;20.20;99.90;;;;;;5011669;28;20096;-83
2023/06/19 05:02:59;;;;;;;3.63;2.30;;;20.40;99.90;;;;;;4993145;28;20061;-85
2023/06/19 05:05:26;;;;;;;5.03;2.70;;;20.40;99.90;;;;;;4993877;28;20036;-84
2023/06/19 05:07:52;;;;;;;3.67;2.63;;;20.60;99.90;;;;;;5011067;28;20137;-84
2023/06/19 05:10:19;;;;;;;3.05;2.42;;;20.70;99.90;;;;;;4993151;28;20022;-85
2023/06/19 05:12:44;;;;;;;3.80;2.70;;;20.90;99.90;;;;;;4992711;28;20037;-84
2023/06/19 05:15:10;;;;;;;4.25;3.15;;;21.00;99.90;;;;;;5010224;28;20041;-82
2023/06/19 05:17:38;;;;;;;8.10;2.75;;;21.20;99.90;;;;;;5010477;28;20033;-81
2023/06/19 05:20:06;;;;;;;4.28;3.42;;;21.30;99.90;;;;;;4992487;28;20051;-83
2023/06/19 05:22:33;;;;;;;5.38;3.20;;;21.50;99.90;;;;;;5011448;28;20253;-83
2023/06/19 05:25:00;;;;;;;6.10;3.38;;;21.70;99.90;;;;;;4993367;28;20026;-83
2023/06/19 05:27:25;;;;;;;5.68;3.40;;;21.90;99.90;;;;;;5010828;28;20032;-81
2023/06/19 05:29:51;;;;;;;7.03;3.42;;;22.10;99.90;;;;;;4992996;28;20034;-82
2023/06/19 05:32:16;;;;;;;6.00;3.60;;;22.20;99.90;;;;;;4993851;28;20041;-82
2023/06/19 05:34:42;;;;;;;4.22;3.35;;;22.30;99.90;;;;;;4993563;28;20536;-82
2023/06/19 05:37:08;;;;;;;5.07;3.95;;;22.40;99.90;;;;;;4993206;28;20414;-83
2023/06/19 05:39:33;;;;;;;5.95;3.70;;;22.50;99.90;;;;;;5010912;28;20537;-83
2023/06/19 05:41:59;;;;;;;4.00;3.50;;;22.60;99.90;;;;;;4992832;28;20026;-82
2023/06/19 05:44:25;;;;;;;4.22;3.30;;;22.90;98.70;;;;;;4993574;28;20057;-83
2023/06/19 05:46:50;;;;;;;7.57;3.33;;;22.90;97.80;;;;;;5010300;28;20030;-82
2023/06/19 05:49:16;;;;;;;3.97;3.10;;;23.10;98.00;;;;;;4993067;28;20088;-83
2023/06/19 05:51:42;;;;;;;4.65;3.65;;;23.40;97.20;;;;;;4992384;28;20065;-84
2023/06/19 05:54:09;;;;;;;4.43;3.50;;;23.70;95.60;;;;;;5011079;28;20026;-83
2023/06/19 05:56:36;;;;;;;3.47;3.08;;;24.40;92.70;;;;;;4993951;28;20030;-84
2023/06/19 05:59:02;;;;;;;4.72;3.28;;;25.30;84.50;;;;;;5011495;28;20026;-83
2023/06/19 06:01:28;;;;;;;6.07;4.05;;;26.60;75.70;;;;;;4996135;28;20396;-83
2023/06/19 06:03:55;;;;;;;5.80;3.55;;;28.00;64.00;;;;;;4997236;28;20030;-84
2023/06/19 06:06:23;;;;;;;6.85;4.05;;;29.40;55.40;;;;;;4997010;28;20142;-84
2023/06/19 06:08:51;;;;;;;6.35;4.22;;;30.40;48.60;;;;;;4996449;28;20445;-84
2023/06/19 06:11:16;;;;;;;7.97;4.13;;;31.30;44.90;;;;;;4995821;28;20038;-84
2023/06/19 06:13:42;;;;;;;5.60;4.22;;;32.00;41.90;;;;;;4995777;28;20037;-84
2023/06/19 06:16:08;;;;;;;7.10;3.63;;;32.40;40.10;;;;;;4996295;28;20099;-85
2023/06/19 06:18:33;;;;;;;5.13;3.92;;;32.90;40.30;;;;;;4995819;28;20026;-84
2023/06/19 06:20:59;;;;;;;7.88;4.20;;;33.30;38.30;;;;;;4996484;28;20053;-84
2023/06/19 06:23:25;;;;;;;7.30;4.25;;;33.70;37.10;;;;;;5013104;28;20025;-83
2023/06/19 06:25:51;;;;;;;5.25;3.80;;;33.90;35.20;;;;;;4995119;28;20121;-84
2023/06/19 06:28:17;;;;;;;5.30;3.63;;;34.20;34.50;;;;;;5013184;28;20096;-83
2023/06/19 06:30:43;;;;;;;8.43;4.15;;;34.40;34.00;;;;;;4996275;28;20037;-83
2023/06/19 06:33:09;;;;;;;5.43;4.00;;;34.70;33.80;;;;;;4995850;28;20041;-84
2023/06/19 06:35:35;;;;;;;5.50;4.10;;;34.80;32.60;;;;;;4995376;28;20036;-84
2023/06/19 06:38:02;;;;;;;5.63;3.72;;;34.80;32.90;;;;;;4995758;28;20064;-83
2023/06/19 06:40:27;;;;;;;5.90;3.65;;;34.80;32.40;;;;;;4995941;28;20026;-85
2023/06/19 06:42:53;;;;;;;6.22;4.03;;;35.10;31.30;;;;;;5013418;28;20041;-85
2023/06/19 06:45:19;;;;;;;6.70;3.83;;;35.00;30.80;;;;;;5013916;28;20022;-84
2023/06/19 06:47:45;;;;;;;8.05;3.60;;;35.10;30.40;;;;;;5013527;28;20044;-85
2023/06/19 06:50:11;;;;;;;6.28;3.60;;;34.90;30.00;;;;;;5013266;28;20513;-84
2023/06/19 06:52:37;;;;;;;5.28;3.55;;;35.00;29.80;;;;;;4995639;28;20041;-84
2023/06/19 06:55:03;;;;;;;6.28;3.88;;;35.10;29.90;;;;;;4995749;28;20026;-84
2023/06/19 06:57:29;;;;;;;8.02;4.13;;;35.30;29.80;;;;;;4995290;28;20037;-85
2023/06/19 06:59:55;;;;;;;7.95;3.78;;;35.30;29.90;;;;;;4996130;28;20508;-85
2023/06/19 07:02:20;;;;;;;8.65;3.70;;;35.20;29.50;;;;;;4997052;28;20026;-87
2023/06/19 07:04:46;;;;;;;6.35;3.63;;;35.20;30.30;;;;;;4998114;28;20026;-87
2023/06/19 07:07:15;;;;;;;11.05;4.47;;;35.50;30.80;;;;;;4997332;28;20057;-88
2023/06/19 07:09:40;;;;;;;11.40;4.20;;;35.40;30.60;;;;;;5014900;28;20030;-89
2023/06/19 07:12:07;;;;;;;8.35;3.88;;;35.20;30.80;;;;;;4996596;28;20099;-85
2023/06/19 07:14:33;;;;;;;6.80;4.25;;;34.90;30.90;;;;;;4997702;28;20137;-83
2023/06/19 07:16:58;;;;;;;13.73;4.72;;;34.80;31.80;;;;;;4997410;28;20093;-87
2023/06/19 07:19:24;;;;;;;11.02;4.22;;;35.00;31.50;;;;;;4998165;28;20018;-88
2023/06/19 07:21:51;;;;;;;6.18;3.70;;;34.90;32.90;;;;;;4998486;28;20064;-90
2023/06/19 07:24:17;;;;;;;8.88;4.30;;;35.10;32.10;;;;;;4998274;28;20486;-88
2023/06/19 07:26:42;;;;;;;7.22;3.65;;;35.20;32.00;;;;;;4999090;28;20030;-87
2023/06/19 07:29:08;;;;;;;10.07;4.22;;;34.90;31.50;;;;;;4999275;28;20032;-89
2023/06/19 07:31:33;;;;;;;7.03;4.15;;;34.80;31.50;;;;;;4997856;28;20042;-90
2023/06/19 07:33:59;;;;;;;10.68;4.38;;;34.40;32.70;;;;;;4998071;28;20068;-89
2023/06/19 07:36:25;;;;;;;7.85;4.10;;;34.80;32.80;;;;;;4997770;28;20041;-87
2023/06/19 07:38:52;;;;;;;8.18;3.70;;;34.90;32.70;;;;;;4998109;28;20017;-88
2023/06/19 07:41:17;;;;;;;7.00;4.03;;;34.70;33.10;;;;;;5015083;28;20022;-88
2023/06/19 07:43:43;;;;;;;8.13;3.67;;;34.60;33.30;;;;;;5003281;28;20040;-88
2023/06/19 07:46:10;;;;;;;6.63;3.75;;;34.70;33.30;;;;;;5020904;28;20017;-89
2023/06/19 07:48:35;;;;;;;7.40;3.75;;;34.90;32.70;;;;;;5016723;28;20394;-89
2023/06/19 07:51:01;;;;;;;6.85;3.92;;;34.80;32.40;;;;;;5004685;28;20045;-88
2023/06/19 07:53:26;;;;;;;9.00;3.88;;;34.80;32.80;;;;;;5015476;28;20030;-89
2023/06/19 07:55:52;;;;;;;10.93;3.60;;;34.80;33.00;;;;;;4997968;28;20125;-88
2023/06/19 07:58:18;;;;;;;6.40;3.25;;;35.10;33.40;;;;;;5015202;28;20053;-89
2023/06/19 08:00:43;;;;;;;5.68;3.60;;;35.40;33.00;;;;;;4997796;28;20022;-88
2023/06/19 08:03:09;;;;;;;11.90;4.38;;;35.80;32.00;;;;;;4997728;28;20121;-91
2023/06/19 08:05:35;;;;;;;13.98;5.38;;;35.30;32.50;;;;;;4997305;28;20471;-88
2023/06/19 08:08:01;;;;;;;7.00;4.18;;;34.80;33.00;;;;;;4997301;28;20072;-89
2023/06/19 08:10:27;;;;;;;12.10;4.22;;;34.40;33.10;;;;;;5014954;28;20101;-87
2023/06/19 08:12:53;;;;;;;24.92;8.00;;;34.30;33.80;;;;;;4997637;28;20068;-89
2023/06/19 08:15:19;;;;;;;8.30;4.65;;;34.50;34.30;;;;;;4997315;28;20073;-88
2023/06/19 08:17:44;;;;;;;8.02;4.20;;;34.70;34.00;;;;;;4997321;28;20080;-89
2023/06/19 08:20:12;;;;;;;10.90;4.03;;;34.70;33.00;;;;;;4998046;28;20050;-88
2023/06/19 08:22:37;;;;;;;9.38;5.75;;;33.80;33.10;;;;;;4996848;28;20508;-91
2023/06/19 08:25:04;;;;;;;8.02;3.30;;;33.40;34.80;;;;;;5014648;28;20029;-91
2023/06/19 08:27:30;;;;;;;7.82;3.70;;;32.70;36.60;;;;;;5013854;28;20113;-92
2023/06/19 08:29:55;;;;;;;7.32;3.80;;;32.70;36.90;;;;;;4997755;28;20065;-90
2023/06/19 08:32:21;;;;;;;8.80;4.07;;;32.90;35.60;;;;;;5014205;28;20065;-88
2023/06/19 08:34:46;;;;;;;5.63;4.18;;;33.40;34.90;;;;;;4995318;28;20557;-82
2023/06/19 08:37:12;;;;;;;8.45;4.03;;;33.40;35.20;;;;;;5011968;28;20030;-84
2023/06/19 08:39:39;;;;;;;7.63;4.40;;;33.60;36.60;;;;;;5013084;28;20030;-88
2023/06/19 08:42:11;;;;;;;10.63;4.43;;;33.90;34.70;;;;;;4995214;28;20021;-88
2023/06/19 08:44:37;;;;;;;11.55;4.53;;;34.00;35.40;;;;;;4995223;28;20511;-91
2023/06/19 08:47:03;;;;;;;14.68;4.25;;;34.50;34.70;;;;;;5012791;28;20033;-87
2023/06/19 08:49:36;;;;;;;22.67;5.25;;;34.80;34.10;;;;;;4995359;28;20025;-85
2023/06/19 08:52:05;;;;;;;5.28;3.30;;;35.30;34.30;;;;;;5012730;28;20034;-86
2023/06/19 08:54:31;;;;;;;5.85;3.53;;;35.60;33.90;;;;;;5011937;28;20108;-89
2023/06/19 08:57:01;;;;;;;10.85;3.45;;;35.60;31.60;;;;;;5012633;28;20091;-89
2023/06/19 08:59:28;;;;;;;7.65;3.58;;;35.60;32.70;;;;;;5013061;28;20483;-87
2023/06/19 09:01:55;;;;;;;4.78;3.40;;;35.50;31.40;;;;;;4995566;28;20026;-89
2023/06/19 09:04:23;;;;;;;6.05;3.85;;;34.90;32.00;;;;;;4995670;28;20018;-86
2023/06/19 09:06:49;;;;;;;10.10;4.05;;;34.40;34.60;;;;;;4994805;28;20033;-84
2023/06/19 09:09:16;;;;;;;9.27;4.07;;;34.10;35.10;;;;;;4994511;28;20030;-85
2023/06/19 09:11:44;;;;;;;7.80;4.30;;;34.20;35.10;;;;;;5011663;28;20132;-84
2023/06/19 09:14:11;;;;;;;6.20;3.53;;;34.30;34.80;;;;;;4990156;28;20050;-84
2023/06/19 09:16:41;;;;;;;7.95;3.67;;;34.60;34.40;;;;;;4992555;28;20088;-86
2023/06/19 09:19:07;;;;;;;7.13;3.90;;;35.10;33.80;;;;;;4991371;28;20053;-90
2023/06/19 09:21:41;;;;;;;6.22;3.60;;;35.60;33.20;;;;;;4992591;28;20432;-89
2023/06/19 09:24:07;;;;;;;7.45;3.00;;;35.80;32.20;;;;;;4991844;28;20034;-84
2023/06/19 09:26:37;;;;;;;5.43;3.17;;;35.80;30.10;;;;;;4990731;28;20034;-85
2023/06/19 09:29:13;;;;;;;3.55;2.88;;;36.00;29.20;;;;;;4990704;28;20069;-85
2023/06/19 09:31:41;;;;;;;5.13;2.83;;;36.00;29.80;;;;;;4992286;28;20042;-88
2023/06/19 09:34:07;;;;;;;3.92;3.10;;;36.30;28.70;;;;;;4992519;28;20030;-88
2023/06/19 09:36:34;;;;;;;3.60;2.72;;;36.40;29.60;;;;;;4992110;28;20026;-88
2023/06/19 09:39:01;;;;;;;7.55;2.97;;;36.60;29.50;;;;;;4993263;28;20030;-90
2023/06/19 09:41:29;;;;;;;11.32;3.22;;;36.50;28.10;;;;;;4992209;28;20130;-90
2023/06/19 09:43:59;;;;;;;5.15;2.85;;;36.50;28.60;;;;;;4993584;28;20061;-88
2023/06/19 09:46:36;;;;;;;9.18;3.58;;;36.50;29.30;;;;;;4995168;28;20038;-87
2023/06/19 09:49:05;;;;;;;9.20;3.00;;;36.60;28.20;;;;;;4991618;28;20098;-88
2023/06/19 09:51:36;;;;;;;6.35;3.38;;;36.60;28.50;;;;;;4993144;28;20038;-88
2023/06/19 09:54:04;;;;;;;6.80;3.63;;;36.90;28.70;;;;;;4992040;28;20426;-90
2023/06/19 09:56:30;;;;;;;4.03;3.25;;;37.10;28.40;;;;;;4992850;28;20046;-89
2023/06/19 09:59:00;;;;;;;4.25;3.30;;;37.00;28.70;;;;;;4992170;28;20062;-87
2023/06/19 10:01:30;;;;;;;5.05;3.40;;;36.90;28.80;;;;;;4993358;28;20029;-85
2023/06/19 10:04:11;;;;;;;4.70;3.50;;;36.50;29.10;;;;;;4992279;28;20030;-87
2023/06/19 10:06:47;;;;;;;6.45;3.55;;;36.10;28.80;;;;;;4993382;28;20030;-88
2023/06/19 10:09:17;;;;;;;9.85;3.25;;;35.30;30.30;;;;;;4993434;28;20029;-89
2023/06/19 10:11:51;;;;;;;4.07;3.28;;;34.80;30.40;;;;;;4993023;28;20030;-87
2023/06/19 10:14:21;;;;;;;4.20;3.20;;;34.30;30.50;;;;;;4991575;28;20089;-86
2023/06/19 10:16:47;;;;;;;7.70;3.95;;;33.90;28.70;;;;;;4991548;28;20109;-85
2023/06/19 10:19:18;;;;;;;7.25;3.28;;;33.30;30.70;;;;;;4992201;28;20037;-86
2023/06/19 10:21:49;;;;;;;7.85;3.35;;;33.00;31.80;;;;;;4991021;28;20030;-85
2023/06/19 10:24:18;;;;;;;6.43;3.15;;;32.90;32.30;;;;;;4991205;28;20054;-87
2023/06/19 10:26:55;;;;;;;3.58;2.97;;;32.90;32.90;;;;;;4991411;28;20030;-85
2023/06/19 10:29:21;;;;;;;4.47;3.28;;;32.90;31.80;;;;;;4990858;28;20491;-85
2023/06/19 10:31:47;;;;;;;3.08;2.72;;;32.70;31.30;;;;;;4991209;28;20042;-85
2023/06/19 10:34:13;;;;;;;6.45;3.55;;;32.60;32.70;;;;;;4992198;28;20026;-86
2023/06/19 10:36:38;;;;;;;5.13;3.22;;;32.40;32.80;;;;;;4992229;28;20030;-86
2023/06/19 10:39:04;;;;;;;3.35;2.80;;;32.30;31.90;;;;;;4991895;28;20104;-86
2023/06/19 10:41:31;;;;;;;5.63;3.55;;;32.20;32.50;;;;;;4991591;28;20034;-86
2023/06/19 10:44:08;;;;;;;5.07;3.63;;;32.10;33.40;;;;;;4991912;28;20512;-83
2023/06/19 10:46:35;;;;;;;5.82;3.22;;;32.10;33.10;;;;;;4994158;28;20026;-87
2023/06/19 10:49:04;;;;;;;6.78;3.38;;;32.00;33.20;;;;;;4995076;28;20023;-85
2023/06/19 10:51:31;;;;;;;4.18;3.55;;;31.90;33.90;;;;;;4994869;28;20518;-87
2023/06/19 10:53:57;;;;;;;8.05;3.55;;;31.90;34.70;;;;;;4993942;28;20026;-87
2023/06/19 10:56:24;;;;;;;6.40;3.28;;;31.70;33.30;;;;;;4998049;28;20023;-86
2023/06/19 10:59:05;;;;;;;3.83;3.30;;;31.80;35.50;;;;;;5016658;28;20037;-89
2023/06/19 11:01:52;;;;;;;3.80;3.40;;;31.70;34.80;;;;;;5013453;28;20046;-87
2023/06/19 11:04:18;;;;;;;8.35;3.25;;;31.70;33.90;;;;;;5000788;28;20033;-89
2023/06/19 11:06:45;;;;;;;9.27;3.90;;;31.70;34.80;;;;;;5006707;28;20023;-87
2023/06/19 11:09:12;;;;;;;8.35;3.95;;;31.70;34.60;;;;;;4995413;28;20046;-89
2023/06/19 11:11:48;;;;;;;4.05;3.65;;;31.60;34.50;;;;;;4995001;28;20046;-87
2023/06/19 11:14:17;;;;;;;4.28;3.53;;;31.60;35.00;;;;;;4993642;28;20050;-87
2023/06/19 11:16:45;;;;;;;6.63;3.97;;;31.70;35.70;;;;;;4992842;28;20031;-86
2023/06/19 11:19:20;;;;;;;4.97;3.72;;;31.80;35.00;;;;;;4994084;28;20041;-87
2023/06/19 11:21:50;;;;;;;7.70;4.22;;;31.60;33.80;;;;;;4993907;28;20034;-86
2023/06/19 11:24:17;;;;;;;5.60;3.88;;;31.60;34.60;;;;;;4994211;28;20018;-87
2023/06/19 11:26:49;;;;;;;5.72;3.83;;;31.70;35.60;;;;;;4994263;28;20030;-88
2023/06/19 11:29:40;;;;;;;5.45;3.10;;;31.60;35.20;;;;;;4994483;28;20022;-88
2023/06/19 11:32:14;;;;;;;4.53;3.70;;;31.20;35.10;;;;;;4992583;28;20132;-90
2023/06/19 11:34:40;;;;;;;4.55;3.65;;;31.10;35.00;;;;;;4994002;28;20479;-88
2023/06/19 11:37:21;;;;;;;3.65;2.90;;;31.10;35.80;;;;;;4994233;28;20495;-89
2023/06/19 11:39:48;;;;;;;4.43;3.10;;;31.40;38.50;;;;;;4996088;28;20030;-87
2023/06/19 11:42:17;;;;;;;8.45;3.28;;;31.60;37.10;;;;;;5001082;28;20085;-87
2023/06/19 11:45:05;;;;;;;7.78;3.83;;;31.90;36.70;;;;;;4994647;28;20049;-86
2023/06/19 11:47:31;;;;;;;9.98;3.17;;;32.30;37.30;;;;;;4994053;28;20527;-88
2023/06/19 11:49:57;;;;;;;5.70;3.58;;;32.40;35.50;;;;;;4995007;28;20028;-87
2023/06/19 11:52:23;;;;;;;5.50;3.63;;;32.50;35.30;;;;;;4993351;28;20042;-87
2023/06/19 11:54:49;;;;;;;4.55;3.40;;;32.50;33.90;;;;;;4994112;28;20045;-86
2023/06/19 11:57:15;;;;;;;4.68;3.45;;;32.40;33.40;;;;;;4993138;28;20041;-86
2023/06/19 11:59:41;;;;;;;5.57;3.55;;;32.40;34.30;;;;;;4994839;28;20027;-86
2023/06/19 12:02:07;;;;;;;4.78;3.35;;;32.40;33.30;;;;;;4993834;28;20388;-87
2023/06/19 12:04:33;;;;;;;4.35;3.35;;;32.20;32.30;;;;;;4993859;28;20038;-86
2023/06/19 12:06:59;;;;;;;5.00;3.22;;;32.00;34.00;;;;;;4993992;28;20022;-87
2023/06/19 12:09:25;;;;;;;5.45;3.20;;;31.60;33.90;;;;;;4993722;28;20034;-86
2023/06/19 12:11:51;;;;;;;4.72;3.60;;;31.40;34.60;;;;;;4977581;28;20678;-87
2023/06/19 12:14:18;;;;;;;5.65;3.35;;;31.30;35.40;;;;;;4993335;28;20094;-88
2023/06/19 12:16:45;;;;;;;6.00;3.72;;;31.50;35.60;;;;;;4994102;28;20072;-87
2023/06/19 12:19:11;;;;;;;6.18;3.22;;;31.40;33.80;;;;;;4993968;28;20026;-87
2023/06/19 12:21:36;;;;;;;4.60;2.97;;;31.30;33.50;;;;;;4992862;28;20049;-87
2023/06/19 12:24:02;;;;;;;7.63;3.72;;;31.40;34.90;;;;;;4993504;28;20609;-87
2023/06/19 12:26:28;;;;;;;4.65;3.33;;;31.60;35.40;;;;;;4994888;28;20041;-87
2023/06/19 12:28:53;;;;;;;4.57;3.50;;;31.70;35.40;;;;;;4994839;28;20023;-88
2023/06/19 12:31:19;;;;;;;4.90;3.90;;;31.90;35.10;;;;;;4993558;28;20026;-87
2023/06/19 12:33:47;;;;;;;4.22;3.50;;;31.90;34.90;;;;;;4993345;28;20545;-87
2023/06/19 12:36:14;;;;;;;6.35;3.63;;;31.90;34.30;;;;;;4994868;28;20025;-89
2023/06/19 12:38:40;;;;;;;6.20;3.35;;;31.90;35.20;;;;;;4993513;28;20037;-87
2023/06/19 12:41:07;;;;;;;6.80;3.65;;;31.80;34.50;;;;;;4993330;28;20030;-87
2023/06/19 12:43:33;;;;;;;5.20;3.45;;;31.80;35.20;;;;;;4993621;28;20026;-87
2023/06/19 12:45:59;;;;;;;5.80;3.95;;;31.90;36.10;;;;;;4993525;28;20034;-87
2023/06/19 12:48:26;;;;;;;4.78;4.05;;;31.90;36.10;;;;;;4993444;28;20476;-88